Terminal Aerodrome Forecast
Issued by NWS Wichita, KS

Home | Current Version | Previous Version | Text Only | Print | Product List | Glossary Off
Versions: 1 2 3 4 5 6 7 8 9 10 11 12 13 14 15 16 17 18 19 20 21 22 23

389
FTUS43 KICT 210813 AAC
TAFICT
TAF AMD
KICT 210813Z 2108/2206 35007KT P6SM SCT045
     FM211500 01009KT P6SM SCT035 BKN250
     FM211800 05009KT P6SM BKN040
     FM212300 10007KT P6SM SCT045=

USA.gov is the U.S. government's official web portal to all federal, state and local government web resources and services.